Time;durP1;ratioP1;P1;durP2;ratioP2;P2;SDS_P1;SDS_P2;PMS_P1;PMS_P2;Temp;Humidity;BMP_temperature;BMP_pressure;BME280_temperature;BME280_humidity;BME280_pressure;Samples;Min_cycle;Max_cycle;Signal;HPM_P1;HPM_P2
2023/06/26 00:01:42;;;;;;;7.20;3.50;;;22.20;99.90;;;;;;5091101;28;20020;-57
2023/06/26 00:04:14;;;;;;;8.32;3.72;;;22.20;99.90;;;;;;5090787;28;20119;-56
2023/06/26 00:06:40;;;;;;;8.57;3.70;;;22.20;99.90;;;;;;5091192;28;20394;-57
2023/06/26 00:09:06;;;;;;;7.43;3.85;;;22.20;99.90;;;;;;5091333;28;20249;-55
2023/06/26 00:11:33;;;;;;;10.43;3.80;;;22.10;99.90;;;;;;5091503;28;20107;-56
2023/06/26 00:14:02;;;;;;;8.02;4.18;;;22.10;99.90;;;;;;5091051;28;20506;-55
2023/06/26 00:16:27;;;;;;;9.25;4.38;;;22.10;99.90;;;;;;5090842;28;20035;-57
2023/06/26 00:18:53;;;;;;;9.05;3.85;;;22.00;99.90;;;;;;5090482;28;20058;-57
2023/06/26 00:21:19;;;;;;;7.45;3.90;;;22.00;99.90;;;;;;5090958;28;20028;-56
2023/06/26 00:23:45;;;;;;;9.45;4.13;;;22.00;99.90;;;;;;5092338;28;20068;-53
2023/06/26 00:26:11;;;;;;;8.70;4.30;;;21.90;99.90;;;;;;5095181;28;20451;-56
2023/06/26 00:28:37;;;;;;;8.85;4.10;;;21.90;99.90;;;;;;5095104;28;20103;-57
2023/06/26 00:31:03;;;;;;;9.35;4.05;;;21.90;99.90;;;;;;5094959;28;20119;-56
2023/06/26 00:33:29;;;;;;;8.57;4.20;;;21.90;99.90;;;;;;5094942;28;20020;-56
2023/06/26 00:35:54;;;;;;;10.45;4.90;;;22.10;99.90;;;;;;5094887;28;20107;-56
2023/06/26 00:38:21;;;;;;;9.48;4.10;;;22.20;99.90;;;;;;5094819;28;20028;-58
2023/06/26 00:40:46;;;;;;;8.00;4.10;;;22.20;99.90;;;;;;5095591;28;20020;-56
2023/06/26 00:43:12;;;;;;;9.65;4.20;;;22.30;99.90;;;;;;5094940;28;20035;-57
2023/06/26 00:45:38;;;;;;;8.05;3.92;;;22.30;99.90;;;;;;5094914;28;20028;-56
2023/06/26 00:48:05;;;;;;;9.10;4.22;;;22.30;99.90;;;;;;5094395;28;20069;-55
2023/06/26 00:50:32;;;;;;;8.27;4.22;;;22.40;99.90;;;;;;5093406;28;20020;-57
2023/06/26 00:53:00;;;;;;;7.32;3.97;;;22.40;99.90;;;;;;5094595;28;20032;-57
2023/06/26 00:55:27;;;;;;;12.27;4.93;;;22.40;99.90;;;;;;5094913;28;20035;-57
2023/06/26 00:57:54;;;;;;;8.00;4.47;;;22.40;99.90;;;;;;5094493;28;20124;-57
2023/06/26 01:00:20;;;;;;;10.32;5.07;;;22.50;99.90;;;;;;5094353;28;20025;-55
2023/06/26 01:02:46;;;;;;;10.25;4.30;;;22.40;99.90;;;;;;5094072;28;20051;-56
2023/06/26 01:05:20;;;;;;;9.35;4.82;;;22.50;99.90;;;;;;5094447;28;20097;-57
2023/06/26 01:07:48;;;;;;;9.30;4.30;;;22.30;99.90;;;;;;5094279;28;20429;-56
2023/06/26 01:10:14;;;;;;;9.52;4.20;;;22.20;99.90;;;;;;5094365;28;20031;-57
2023/06/26 01:12:40;;;;;;;11.05;4.88;;;22.20;99.90;;;;;;5094654;28;20077;-57
2023/06/26 01:15:06;;;;;;;11.32;4.93;;;22.00;99.90;;;;;;5094429;28;20409;-56
2023/06/26 01:17:33;;;;;;;12.00;5.35;;;22.00;99.90;;;;;;5093578;28;20062;-57
2023/06/26 01:20:00;;;;;;;8.55;5.05;;;22.00;99.90;;;;;;5094192;28;20120;-56
2023/06/26 01:22:44;;;;;;;11.43;5.72;;;21.90;99.90;;;;;;5094528;28;20044;-59
2023/06/26 01:25:18;;;;;;;10.40;5.70;;;21.90;99.90;;;;;;5094616;28;20043;-57
2023/06/26 01:27:49;;;;;;;9.90;5.45;;;21.80;99.90;;;;;;5093889;28;20021;-56
2023/06/26 01:30:17;;;;;;;10.25;5.45;;;21.80;99.90;;;;;;5093595;28;20056;-56
2023/06/26 01:32:44;;;;;;;9.25;5.30;;;21.80;99.90;;;;;;5093980;28;20020;-56
2023/06/26 01:35:11;;;;;;;9.32;5.30;;;21.70;99.90;;;;;;5093477;28;20042;-56
2023/06/26 01:37:36;;;;;;;11.68;5.72;;;21.70;99.90;;;;;;5093765;28;20036;-57
2023/06/26 01:40:05;;;;;;;10.50;5.13;;;21.70;99.90;;;;;;5093807;28;20108;-57
2023/06/26 01:42:32;;;;;;;11.02;5.22;;;21.70;99.90;;;;;;5093585;28;20441;-57
2023/06/26 01:45:34;;;;;;;10.55;5.53;;;21.70;99.90;;;;;;5092688;28;20517;-56
2023/06/26 01:48:03;;;;;;;12.27;5.60;;;21.70;99.90;;;;;;5031114;28;20389;-57
2023/06/26 01:50:31;;;;;;;10.75;4.97;;;21.90;99.90;;;;;;5031033;28;20030;-56
2023/06/26 01:53:06;;;;;;;13.10;5.85;;;22.00;99.90;;;;;;5031154;28;20025;-57
2023/06/26 01:55:35;;;;;;;11.25;5.60;;;22.10;99.90;;;;;;5031096;28;20099;-56
2023/06/26 01:58:02;;;;;;;10.85;5.78;;;22.10;99.90;;;;;;5030632;28;20046;-56
2023/06/26 02:00:28;;;;;;;12.20;5.75;;;22.20;99.90;;;;;;5030732;28;20496;-56
2023/06/26 02:02:54;;;;;;;9.63;5.43;;;22.20;99.90;;;;;;5030957;28;20504;-53
2023/06/26 02:05:20;;;;;;;11.82;5.60;;;22.20;99.90;;;;;;5030779;28;20060;-54
2023/06/26 02:07:46;;;;;;;12.65;5.90;;;22.20;99.90;;;;;;5031385;28;20061;-55
2023/06/26 02:10:11;;;;;;;14.48;5.70;;;22.30;99.90;;;;;;5030672;28;20044;-57
2023/06/26 02:12:38;;;;;;;13.98;6.43;;;22.20;99.90;;;;;;5030651;28;20467;-56
2023/06/26 02:15:04;;;;;;;10.35;5.50;;;22.10;99.90;;;;;;5030407;28;20022;-55
2023/06/26 02:17:30;;;;;;;14.15;5.95;;;22.20;99.90;;;;;;5030295;28;20053;-56
2023/06/26 02:19:56;;;;;;;10.77;5.55;;;22.20;99.90;;;;;;5030527;28;20033;-57
2023/06/26 02:22:22;;;;;;;11.07;5.75;;;22.20;99.90;;;;;;5030425;28;20428;-56
2023/06/26 02:24:48;;;;;;;14.40;6.20;;;22.10;99.90;;;;;;5073022;28;20123;-57
2023/06/26 02:27:13;;;;;;;13.57;6.10;;;22.10;99.90;;;;;;5072499;28;20400;-57
2023/06/26 02:29:40;;;;;;;12.75;6.07;;;22.00;99.90;;;;;;5072448;28;20025;-57
2023/06/26 02:32:06;;;;;;;12.27;6.22;;;21.90;99.90;;;;;;5072377;28;20089;-56
2023/06/26 02:34:33;;;;;;;11.98;6.57;;;21.80;99.90;;;;;;5072867;28;20028;-56
2023/06/26 02:37:00;;;;;;;12.90;6.45;;;21.80;99.90;;;;;;5072502;28;20070;-53
2023/06/26 02:39:26;;;;;;;17.23;6.40;;;21.70;99.90;;;;;;5072349;28;20025;-57
2023/06/26 02:41:52;;;;;;;13.55;6.50;;;21.70;99.90;;;;;;5072108;28;20036;-57
2023/06/26 02:44:18;;;;;;;13.75;6.07;;;21.70;99.90;;;;;;5072443;28;20538;-56
2023/06/26 02:46:43;;;;;;;14.55;6.30;;;21.70;99.90;;;;;;5071099;28;20032;-55
2023/06/26 02:49:09;;;;;;;13.02;6.03;;;21.70;99.90;;;;;;5072276;28;20506;-57
2023/06/26 02:51:35;;;;;;;13.63;6.32;;;21.60;99.90;;;;;;5072141;28;20063;-57
2023/06/26 02:54:01;;;;;;;13.38;5.85;;;21.60;99.90;;;;;;5072321;28;20051;-57
2023/06/26 02:56:30;;;;;;;11.55;5.93;;;21.60;99.90;;;;;;5071683;28;20032;-57
2023/06/26 02:58:56;;;;;;;11.35;5.47;;;21.60;99.90;;;;;;5071840;28;20107;-58
2023/06/26 03:01:22;;;;;;;12.85;5.72;;;21.60;99.90;;;;;;5071950;28;20033;-57
2023/06/26 03:03:47;;;;;;;14.82;6.10;;;21.60;99.90;;;;;;5072175;28;20090;-57
2023/06/26 03:06:14;;;;;;;14.90;5.70;;;21.70;99.90;;;;;;5072354;28;20052;-55
2023/06/26 03:08:40;;;;;;;12.25;5.40;;;21.80;99.90;;;;;;5071762;28;20063;-56
2023/06/26 03:11:10;;;;;;;14.20;5.47;;;21.80;99.90;;;;;;5071814;28;20016;-56
2023/06/26 03:13:36;;;;;;;12.52;5.60;;;21.90;99.90;;;;;;5071441;28;20169;-55
2023/06/26 03:16:05;;;;;;;14.52;5.93;;;22.00;99.90;;;;;;5071678;28;20035;-57
2023/06/26 03:18:31;;;;;;;13.13;5.88;;;22.00;99.90;;;;;;5087829;28;20449;-57
2023/06/26 03:20:57;;;;;;;13.50;5.70;;;22.00;99.90;;;;;;5091804;28;20024;-56
2023/06/26 03:23:24;;;;;;;14.55;5.78;;;22.00;99.90;;;;;;5092077;28;20578;-56
2023/06/26 03:25:50;;;;;;;13.05;5.65;;;22.00;99.90;;;;;;5091554;28;20020;-56
2023/06/26 03:28:16;;;;;;;13.15;5.70;;;22.10;99.90;;;;;;5091799;28;20032;-56
2023/06/26 03:30:42;;;;;;;14.05;5.20;;;22.10;99.90;;;;;;5091936;28;20073;-55
2023/06/26 03:33:08;;;;;;;14.68;6.10;;;22.00;99.90;;;;;;5091680;28;20099;-58
2023/06/26 03:35:33;;;;;;;13.95;5.78;;;22.00;99.90;;;;;;5091741;28;20032;-57
2023/06/26 03:38:00;;;;;;;11.00;5.50;;;22.00;99.90;;;;;;5091840;28;20046;-56
2023/06/26 03:40:26;;;;;;;19.38;6.55;;;21.80;99.90;;;;;;5091077;28;20054;-57
2023/06/26 03:42:52;;;;;;;13.68;6.22;;;21.80;99.90;;;;;;5091417;28;20121;-57
2023/06/26 03:45:19;;;;;;;17.13;6.70;;;21.60;99.90;;;;;;5091569;28;20028;-57
2023/06/26 03:47:47;;;;;;;17.58;6.88;;;21.60;99.90;;;;;;5091869;28;20107;-55
2023/06/26 03:50:12;;;;;;;13.85;5.88;;;21.50;99.90;;;;;;5091446;28;20030;-57
2023/06/26 03:52:38;;;;;;;12.90;5.90;;;21.40;99.90;;;;;;5091690;28;20036;-57
2023/06/26 03:55:04;;;;;;;11.95;5.60;;;21.40;99.90;;;;;;5091035;28;20395;-55
2023/06/26 03:57:30;;;;;;;14.10;5.75;;;21.30;99.90;;;;;;5091086;28;20028;-57
2023/06/26 03:59:55;;;;;;;14.27;6.45;;;21.30;99.90;;;;;;5091345;28;20028;-56
2023/06/26 04:02:21;;;;;;;14.43;6.53;;;21.30;99.90;;;;;;5091330;28;20031;-57
2023/06/26 04:04:47;;;;;;;17.77;6.30;;;21.30;99.90;;;;;;5091576;28;20024;-57
2023/06/26 04:07:12;;;;;;;16.05;6.25;;;21.30;99.90;;;;;;5091196;28;20387;-56
2023/06/26 04:09:38;;;;;;;13.82;5.90;;;21.30;99.90;;;;;;5090878;28;20032;-56
2023/06/26 04:12:04;;;;;;;13.70;6.40;;;21.30;99.90;;;;;;5091492;28;20112;-57
2023/06/26 04:14:30;;;;;;;15.43;6.50;;;21.30;99.90;;;;;;5091156;28;20016;-57
2023/06/26 04:16:57;;;;;;;15.27;6.38;;;21.30;99.90;;;;;;5090915;28;20115;-57
2023/06/26 04:19:23;;;;;;;12.70;6.70;;;21.30;99.90;;;;;;5090963;28;20032;-56
2023/06/26 04:21:49;;;;;;;13.75;6.50;;;21.40;99.90;;;;;;5091265;28;20067;-54
2023/06/26 04:24:14;;;;;;;14.75;6.55;;;21.50;99.90;;;;;;5090754;28;20035;-55
2023/06/26 04:26:41;;;;;;;12.68;5.82;;;21.60;99.90;;;;;;5090917;28;20016;-56
2023/06/26 04:29:07;;;;;;;15.82;6.13;;;21.60;99.90;;;;;;5091106;28;20032;-57
2023/06/26 04:31:33;;;;;;;16.58;6.20;;;21.70;99.90;;;;;;5091254;28;20554;-57
2023/06/26 04:33:59;;;;;;;15.63;6.72;;;21.70;99.90;;;;;;5090978;28;20027;-57
2023/06/26 04:36:28;;;;;;;14.77;6.30;;;21.70;99.90;;;;;;5090770;28;20039;-57
2023/06/26 04:38:55;;;;;;;14.23;6.22;;;21.80;99.90;;;;;;5090517;28;20028;-56
2023/06/26 04:41:21;;;;;;;17.38;6.55;;;21.70;99.90;;;;;;5091147;28;20513;-57
2023/06/26 04:43:46;;;;;;;16.00;6.53;;;21.70;99.90;;;;;;5090783;28;20016;-56
2023/06/26 04:46:12;;;;;;;14.43;6.22;;;21.70;99.90;;;;;;5090859;28;20645;-57
2023/06/26 04:48:38;;;;;;;14.23;6.40;;;21.60;99.90;;;;;;5090749;28;20134;-57
2023/06/26 04:51:03;;;;;;;16.10;6.85;;;21.60;99.90;;;;;;5090636;28;20073;-56
2023/06/26 04:53:29;;;;;;;18.85;6.75;;;21.50;99.90;;;;;;5090510;28;20284;-56
2023/06/26 04:55:55;;;;;;;12.65;6.82;;;21.40;99.90;;;;;;5090785;28;20027;-55
2023/06/26 04:58:21;;;;;;;13.00;6.78;;;21.30;99.90;;;;;;5090755;28;20090;-58
2023/06/26 05:00:47;;;;;;;16.98;6.60;;;21.30;99.90;;;;;;5090663;28;20416;-52
2023/06/26 05:03:14;;;;;;;13.80;7.07;;;21.20;99.90;;;;;;5089905;28;20156;-56
2023/06/26 05:05:39;;;;;;;15.75;7.22;;;21.10;99.90;;;;;;5089572;28;20509;-57
2023/06/26 05:08:15;;;;;;;16.70;7.30;;;21.10;99.90;;;;;;5090016;28;20032;-57
2023/06/26 05:10:41;;;;;;;13.60;6.70;;;21.00;99.90;;;;;;5092688;28;20099;-56
2023/06/26 05:13:07;;;;;;;12.40;6.63;;;20.90;99.90;;;;;;5094747;28;20111;-57
2023/06/26 05:15:32;;;;;;;15.95;7.10;;;21.00;99.90;;;;;;5094299;28;20542;-57
2023/06/26 05:17:58;;;;;;;14.13;6.63;;;21.00;99.90;;;;;;5092577;28;20200;-57
2023/06/26 05:20:24;;;;;;;15.90;7.00;;;20.90;99.90;;;;;;5094278;28;20024;-57
2023/06/26 05:22:50;;;;;;;15.20;6.55;;;21.00;99.90;;;;;;5093601;28;20126;-57
2023/06/26 05:25:15;;;;;;;14.35;6.63;;;21.00;99.90;;;;;;5094481;28;20058;-57
2023/06/26 05:27:42;;;;;;;16.17;6.80;;;20.90;99.90;;;;;;5094153;28;20032;-52
2023/06/26 05:30:08;;;;;;;11.65;6.68;;;20.90;99.90;;;;;;5094090;28;20520;-57
2023/06/26 05:32:37;;;;;;;13.45;6.20;;;20.90;99.90;;;;;;5093946;28;20085;-57
2023/06/26 05:35:04;;;;;;;17.92;6.50;;;20.90;99.90;;;;;;5093921;28;20074;-57
2023/06/26 05:37:31;;;;;;;14.90;6.10;;;21.00;99.90;;;;;;5093624;28;20040;-57
2023/06/26 05:39:57;;;;;;;11.55;5.82;;;21.10;99.90;;;;;;5093776;28;20020;-57
2023/06/26 05:42:24;;;;;;;15.07;6.43;;;21.20;99.90;;;;;;5093811;28;20024;-57
2023/06/26 05:44:50;;;;;;;14.10;6.63;;;21.30;99.90;;;;;;5094175;28;20020;-57
2023/06/26 05:47:15;;;;;;;12.25;6.35;;;21.30;99.90;;;;;;5093739;28;20032;-57
2023/06/26 05:49:41;;;;;;;12.70;7.13;;;21.40;99.90;;;;;;5093556;28;20028;-57
2023/06/26 05:52:07;;;;;;;17.95;7.15;;;21.40;99.90;;;;;;5093340;28;20524;-57
2023/06/26 05:54:33;;;;;;;17.38;7.30;;;21.50;99.90;;;;;;5092111;28;20402;-57
2023/06/26 05:56:59;;;;;;;13.70;6.88;;;21.50;99.90;;;;;;5093411;28;20028;-57
2023/06/26 05:59:26;;;;;;;16.88;7.07;;;21.50;99.90;;;;;;5093467;28;20036;-57
2023/06/26 06:01:53;;;;;;;14.93;6.40;;;21.50;99.90;;;;;;5093411;28;20024;-57
2023/06/26 06:04:18;;;;;;;15.70;6.47;;;21.50;99.90;;;;;;5093439;28;20034;-57
2023/06/26 06:06:44;;;;;;;14.57;6.25;;;21.50;99.90;;;;;;5092928;28;20024;-56
2023/06/26 06:09:10;;;;;;;13.05;6.75;;;21.40;99.90;;;;;;5093569;28;20493;-57
2023/06/26 06:11:35;;;;;;;14.02;6.57;;;21.30;99.90;;;;;;5093249;28;20034;-57
2023/06/26 06:14:01;;;;;;;12.82;6.50;;;21.20;99.90;;;;;;5093134;28;20020;-58
2023/06/26 06:16:29;;;;;;;14.50;6.43;;;21.30;99.90;;;;;;5093614;28;20035;-58
2023/06/26 06:18:55;;;;;;;11.38;5.38;;;21.30;99.90;;;;;;5092656;28;20086;-57
2023/06/26 06:21:21;;;;;;;12.48;5.18;;;21.30;99.90;;;;;;5092412;28;20111;-58
2023/06/26 06:23:46;;;;;;;12.50;5.30;;;21.20;99.90;;;;;;5093048;28;20103;-56
2023/06/26 06:26:12;;;;;;;13.02;5.20;;;21.30;99.90;;;;;;5093268;28;20611;-57
2023/06/26 06:28:39;;;;;;;14.73;5.10;;;21.40;99.90;;;;;;5092897;28;20402;-57
2023/06/26 06:31:05;;;;;;;11.93;4.82;;;21.30;99.90;;;;;;5092784;28;20028;-57
2023/06/26 06:33:31;;;;;;;14.40;5.57;;;21.30;99.90;;;;;;5093121;28;20023;-57
2023/06/26 06:35:57;;;;;;;10.38;4.90;;;21.30;99.90;;;;;;5092475;28;20032;-56
2023/06/26 06:38:22;;;;;;;12.63;5.38;;;21.30;99.90;;;;;;5092680;28;20477;-57
2023/06/26 06:40:48;;;;;;;12.13;4.82;;;21.20;99.90;;;;;;5092611;28;20122;-57
2023/06/26 06:43:14;;;;;;;12.05;5.07;;;21.20;99.90;;;;;;5093054;28;20036;-57
2023/06/26 06:45:40;;;;;;;10.15;4.15;;;21.20;99.90;;;;;;5092573;28;20044;-56
2023/06/26 06:48:06;;;;;;;8.45;3.70;;;21.20;99.90;;;;;;5092465;28;20047;-57
2023/06/26 06:50:31;;;;;;;11.68;4.05;;;21.30;99.90;;;;;;5092576;28;20036;-57
2023/06/26 06:52:57;;;;;;;14.25;4.30;;;21.40;99.90;;;;;;5091484;28;20081;-57
2023/06/26 06:55:23;;;;;;;8.50;3.53;;;21.60;99.90;;;;;;5092380;28;20051;-57
2023/06/26 06:57:50;;;;;;;10.68;3.53;;;21.60;99.90;;;;;;5092351;28;20447;-57
2023/06/26 07:00:16;;;;;;;9.95;4.13;;;21.70;99.90;;;;;;5092679;28;20024;-57
2023/06/26 07:02:46;;;;;;;11.00;3.45;;;21.60;99.90;;;;;;5092314;28;20023;-57
2023/06/26 07:05:12;;;;;;;13.20;3.83;;;21.70;99.90;;;;;;5092155;28;20036;-57
2023/06/26 07:07:39;;;;;;;9.35;3.03;;;21.70;99.90;;;;;;5092310;28;20024;-57
2023/06/26 07:10:13;;;;;;;9.75;3.30;;;21.80;99.90;;;;;;5092126;28;20077;-58
2023/06/26 07:12:39;;;;;;;14.07;4.30;;;21.80;99.90;;;;;;5092170;28;20036;-57
2023/06/26 07:15:06;;;;;;;8.65;3.30;;;21.80;99.90;;;;;;5091966;28;20482;-57
2023/06/26 07:17:32;;;;;;;9.90;4.18;;;21.80;99.90;;;;;;5091663;28;20110;-56
2023/06/26 07:19:58;;;;;;;10.05;4.03;;;21.80;99.90;;;;;;5091613;28;20081;-57
2023/06/26 07:22:24;;;;;;;13.90;4.75;;;21.80;99.90;;;;;;5091800;28;20527;-57
2023/06/26 07:24:50;;;;;;;11.85;3.83;;;21.80;99.90;;;;;;5092210;28;20234;-52
2023/06/26 07:27:18;;;;;;;10.57;3.70;;;21.70;99.90;;;;;;5091756;28;20059;-58
2023/06/26 07:29:44;;;;;;;7.47;3.53;;;21.60;99.90;;;;;;5091708;28;20035;-58
2023/06/26 07:32:10;;;;;;;9.93;3.60;;;21.60;99.90;;;;;;5091854;28;20025;-57
2023/06/26 07:34:36;;;;;;;11.00;4.22;;;21.60;99.90;;;;;;5091220;28;20020;-57
2023/06/26 07:37:01;;;;;;;10.85;3.88;;;21.50;99.90;;;;;;5091573;28;20039;-57
2023/06/26 07:39:27;;;;;;;11.30;3.65;;;21.50;99.90;;;;;;5091487;28;20490;-57
2023/06/26 07:41:53;;;;;;;10.85;3.53;;;21.60;99.90;;;;;;5091582;28;20099;-57
2023/06/26 07:44:18;;;;;;;10.85;3.20;;;21.60;99.90;;;;;;5091850;28;20031;-57
2023/06/26 07:46:44;;;;;;;12.38;3.60;;;21.60;99.90;;;;;;5091095;28;20030;-56
2023/06/26 07:49:11;;;;;;;8.63;3.38;;;21.60;99.90;;;;;;5091475;28;20023;-58
2023/06/26 07:51:37;;;;;;;8.25;3.17;;;21.70;99.90;;;;;;5091779;28;20016;-58
2023/06/26 07:54:03;;;;;;;8.68;2.83;;;21.80;99.90;;;;;;5091348;28;20080;-56
2023/06/26 07:56:28;;;;;;;8.18;2.90;;;21.80;99.90;;;;;;5091306;28;20074;-57
2023/06/26 07:58:54;;;;;;;11.13;2.70;;;21.80;99.90;;;;;;5091203;28;20559;-57
2023/06/26 08:01:20;;;;;;;8.32;2.63;;;21.80;99.90;;;;;;5090954;28;20028;-57
2023/06/26 08:03:45;;;;;;;7.70;2.72;;;21.90;99.90;;;;;;5091540;28;20043;-57
2023/06/26 08:06:11;;;;;;;6.43;2.20;;;22.10;99.90;;;;;;5091504;28;20095;-56
2023/06/26 08:08:37;;;;;;;5.65;2.60;;;22.20;99.90;;;;;;5091251;28;20020;-57
2023/06/26 08:11:02;;;;;;;7.35;2.60;;;22.30;99.90;;;;;;5091252;28;20036;-57
2023/06/26 08:13:28;;;;;;;6.90;2.60;;;22.50;99.90;;;;;;5091334;28;20036;-58
2023/06/26 08:15:54;;;;;;;9.13;2.67;;;22.60;99.90;;;;;;5091008;28;20024;-55
2023/06/26 08:18:20;;;;;;;8.75;2.95;;;22.60;99.90;;;;;;5090740;28;20505;-56
2023/06/26 08:20:46;;;;;;;8.25;3.28;;;22.70;99.90;;;;;;5091465;28;20027;-57
2023/06/26 08:23:11;;;;;;;6.90;2.72;;;22.80;99.90;;;;;;5089626;28;20139;-57
2023/06/26 08:25:37;;;;;;;8.27;2.70;;;22.90;99.90;;;;;;5091235;28;20055;-57
2023/06/26 08:28:03;;;;;;;6.88;2.70;;;22.90;99.90;;;;;;5090928;28;20070;-57
2023/06/26 08:30:29;;;;;;;8.40;2.80;;;22.90;99.90;;;;;;5090694;28;20409;-56
2023/06/26 08:32:57;;;;;;;6.78;2.78;;;22.90;99.90;;;;;;5091346;28;20107;-55
2023/06/26 08:35:23;;;;;;;13.00;2.88;;;22.90;99.90;;;;;;5091034;28;20040;-57
2023/06/26 08:37:49;;;;;;;8.90;2.80;;;22.90;99.90;;;;;;5090828;28;20036;-57
2023/06/26 08:40:18;;;;;;;7.80;2.60;;;22.70;99.90;;;;;;5090025;28;20046;-58
2023/06/26 08:42:44;;;;;;;10.13;3.58;;;22.70;99.90;;;;;;5090735;28;20024;-57
2023/06/26 08:45:10;;;;;;;9.27;2.70;;;22.70;99.90;;;;;;5092066;28;20367;-57
2023/06/26 08:47:37;;;;;;;9.73;3.00;;;22.70;99.90;;;;;;5094938;28;20076;-57
2023/06/26 08:50:09;;;;;;;9.32;2.80;;;22.70;99.90;;;;;;5093501;28;20063;-57
2023/06/26 08:52:45;;;;;;;10.00;2.92;;;22.70;99.90;;;;;;5094786;28;20020;-57
2023/06/26 08:55:15;;;;;;;9.27;2.83;;;22.70;99.90;;;;;;5094674;28;20031;-57
2023/06/26 08:57:40;;;;;;;8.70;2.58;;;22.70;99.90;;;;;;5094992;28;20135;-57
2023/06/26 09:00:08;;;;;;;8.63;2.70;;;22.80;99.90;;;;;;5094209;28;20574;-57
2023/06/26 09:02:36;;;;;;;6.22;2.40;;;22.70;99.90;;;;;;5094476;28;20040;-57
2023/06/26 09:05:03;;;;;;;6.28;2.60;;;22.80;99.90;;;;;;5094508;28;20024;-57
2023/06/26 09:07:29;;;;;;;6.63;3.03;;;22.70;99.90;;;;;;5094350;28;20459;-53
2023/06/26 09:09:54;;;;;;;6.50;2.75;;;22.70;99.90;;;;;;5094451;28;20099;-56
2023/06/26 09:12:20;;;;;;;7.30;2.85;;;22.80;99.90;;;;;;5094538;28;20036;-57
2023/06/26 09:14:47;;;;;;;7.05;2.63;;;22.90;99.90;;;;;;5094311;28;20020;-57
2023/06/26 09:17:13;;;;;;;8.20;3.05;;;23.00;99.90;;;;;;5093988;28;20528;-57
2023/06/26 09:19:39;;;;;;;8.00;2.92;;;23.00;99.90;;;;;;5094145;28;20032;-57
2023/06/26 09:22:14;;;;;;;6.60;2.83;;;23.20;99.90;;;;;;5094181;28;20529;-57
2023/06/26 09:24:42;;;;;;;6.47;2.95;;;23.50;99.90;;;;;;5094076;28;20020;-56
2023/06/26 09:27:07;;;;;;;9.43;3.05;;;23.50;99.90;;;;;;5094027;28;20032;-57
2023/06/26 09:29:33;;;;;;;5.82;2.95;;;23.60;99.90;;;;;;5093724;28;20102;-58
2023/06/26 09:31:59;;;;;;;5.55;2.72;;;23.80;99.90;;;;;;5093887;28;20031;-55
2023/06/26 09:34:32;;;;;;;6.13;2.75;;;23.90;99.90;;;;;;5094430;28;20028;-57
2023/06/26 09:36:58;;;;;;;6.60;2.30;;;23.90;99.90;;;;;;5093998;28;20028;-54
2023/06/26 09:39:24;;;;;;;5.50;2.55;;;23.90;99.90;;;;;;5093821;28;20266;-57
2023/06/26 09:41:50;;;;;;;5.18;2.20;;;24.00;99.90;;;;;;5093792;28;20101;-57
2023/06/26 09:44:16;;;;;;;5.78;2.33;;;24.00;99.90;;;;;;5093326;28;20478;-57
2023/06/26 09:46:45;;;;;;;6.38;2.55;;;24.00;99.90;;;;;;5094141;28;20035;-57
2023/06/26 09:49:11;;;;;;;6.68;2.67;;;23.80;99.90;;;;;;5093787;28;20055;-57
2023/06/26 09:51:40;;;;;;;6.45;2.70;;;24.00;99.90;;;;;;5093803;28;20046;-57
2023/06/26 09:54:07;;;;;;;5.32;2.50;;;24.00;99.90;;;;;;5092289;28;20433;-57
2023/06/26 09:56:33;;;;;;;6.60;2.22;;;23.70;99.90;;;;;;5092858;28;20111;-57
2023/06/26 09:59:03;;;;;;;4.85;2.28;;;23.60;99.90;;;;;;5093294;28;20028;-57
2023/06/26 10:01:30;;;;;;;4.78;2.10;;;23.60;99.90;;;;;;5093800;28;20099;-57
2023/06/26 10:03:59;;;;;;;5.70;2.33;;;23.60;99.90;;;;;;5093358;28;20073;-57
2023/06/26 10:06:31;;;;;;;5.50;2.20;;;23.70;99.90;;;;;;5093408;28;20089;-58
2023/06/26 10:08:59;;;;;;;4.85;1.70;;;23.60;99.90;;;;;;5092016;28;20386;-57
2023/06/26 10:11:27;;;;;;;6.32;2.22;;;23.50;99.90;;;;;;5093240;28;20055;-57
2023/06/26 10:13:56;;;;;;;4.93;1.80;;;23.60;99.90;;;;;;5092882;28;20406;-58
2023/06/26 10:16:26;;;;;;;5.15;1.90;;;23.60;99.90;;;;;;5093504;28;20024;-58
2023/06/26 10:18:56;;;;;;;5.07;1.88;;;23.80;99.90;;;;;;5092622;28;20036;-57
2023/06/26 10:21:23;;;;;;;5.60;2.13;;;23.70;99.90;;;;;;5092913;28;20406;-57
2023/06/26 10:23:51;;;;;;;4.40;1.77;;;23.80;99.90;;;;;;5092960;28;20054;-57
2023/06/26 10:26:20;;;;;;;4.38;1.73;;;24.00;99.90;;;;;;5092703;28;20474;-57
2023/06/26 10:28:51;;;;;;;5.40;1.48;;;24.00;99.90;;;;;;5092866;28;20039;-57
2023/06/26 10:31:21;;;;;;;4.10;1.52;;;24.00;99.90;;;;;;5093081;28;20016;-57
2023/06/26 10:33:48;;;;;;;5.15;1.80;;;24.00;99.90;;;;;;5093116;28;20060;-57
2023/06/26 10:36:28;;;;;;;4.57;1.80;;;24.00;99.90;;;;;;5092817;28;20054;-57
2023/06/26 10:38:58;;;;;;;3.13;1.70;;;24.20;99.90;;;;;;5092545;28;20509;-57
2023/06/26 10:41:25;;;;;;;3.85;1.73;;;24.50;99.90;;;;;;5092357;28;20039;-57
2023/06/26 10:44:10;;;;;;;4.00;1.65;;;24.70;99.90;;;;;;5092509;28;20103;-57
2023/06/26 10:46:52;;;;;;;3.92;1.75;;;24.60;99.90;;;;;;5092555;28;20028;-58
2023/06/26 10:49:26;;;;;;;5.10;2.00;;;24.70;99.90;;;;;;5092743;28;20036;-57
2023/06/26 10:51:54;;;;;;;4.55;2.13;;;24.70;99.90;;;;;;5091133;28;20032;-57
2023/06/26 10:54:20;;;;;;;3.88;1.95;;;25.00;99.90;;;;;;5092734;28;20194;-57
2023/06/26 10:56:56;;;;;;;4.20;2.00;;;25.00;99.90;;;;;;5091905;28;20034;-59
2023/06/26 10:59:28;;;;;;;4.28;2.25;;;25.00;99.90;;;;;;5092647;28;20558;-57
2023/06/26 11:02:06;;;;;;;4.38;2.45;;;25.20;99.90;;;;;;5092210;28;20024;-58
2023/06/26 11:04:40;;;;;;;4.38;2.50;;;25.20;99.90;;;;;;5092273;28;20558;-57
2023/06/26 11:07:16;;;;;;;3.85;2.25;;;25.10;99.90;;;;;;5091496;28;20032;-57
2023/06/26 11:10:17;;;;;;;7.05;2.70;;;25.20;99.90;;;;;;5091718;28;20050;-54
2023/06/26 11:12:44;;;;;;;4.82;2.50;;;25.30;99.90;;;;;;5092277;28;20051;-57
2023/06/26 11:15:14;;;;;;;2.80;2.30;;;25.30;99.90;;;;;;5092066;28;20024;-58
2023/06/26 11:17:44;;;;;;;4.03;2.47;;;25.20;99.90;;;;;;5091972;28;20124;-58
2023/06/26 11:20:15;;;;;;;3.80;2.42;;;25.20;99.90;;;;;;5091808;28;20051;-57
2023/06/26 11:22:42;;;;;;;5.97;2.60;;;25.20;99.90;;;;;;5091670;28;20047;-57
2023/06/26 11:25:10;;;;;;;3.75;2.40;;;25.20;99.90;;;;;;5091940;28;20410;-57
2023/06/26 11:27:43;;;;;;;5.88;3.08;;;25.10;99.90;;;;;;5091929;28;20039;-56
2023/06/26 11:30:11;;;;;;;5.50;2.60;;;25.10;99.90;;;;;;5091938;28;20028;-56
2023/06/26 11:32:38;;;;;;;4.63;2.05;;;25.00;99.90;;;;;;5091720;28;20032;-57
2023/06/26 11:35:04;;;;;;;5.97;2.28;;;24.80;99.90;;;;;;5092276;28;20030;-57
2023/06/26 11:37:31;;;;;;;6.97;2.15;;;24.80;99.90;;;;;;5091501;28;20506;-57
2023/06/26 11:39:57;;;;;;;7.05;2.20;;;25.00;99.90;;;;;;5091175;28;20027;-57
2023/06/26 11:42:25;;;;;;;9.43;2.67;;;24.80;99.90;;;;;;5091927;28;20036;-57
2023/06/26 11:44:52;;;;;;;8.15;2.50;;;24.90;99.90;;;;;;5091572;28;20085;-57
2023/06/26 11:47:19;;;;;;;8.32;2.88;;;24.80;99.90;;;;;;5091555;28;20046;-57
2023/06/26 11:49:49;;;;;;;5.82;2.30;;;24.70;99.90;;;;;;5091399;28;20032;-57
2023/06/26 11:52:16;;;;;;;7.15;2.50;;;24.80;99.90;;;;;;5091800;28;20081;-57
2023/06/26 11:54:42;;;;;;;6.70;2.40;;;24.80;99.90;;;;;;5091056;28;20110;-58
2023/06/26 11:57:13;;;;;;;5.85;2.13;;;25.30;99.90;;;;;;5091676;28;20066;-57
2023/06/26 11:59:40;;;;;;;6.68;2.28;;;25.30;99.90;;;;;;5091310;28;20020;-57
2023/06/26 12:02:10;;;;;;;8.95;1.98;;;25.30;99.90;;;;;;5091662;28;20077;-57
2023/06/26 12:04:39;;;;;;;5.53;2.20;;;25.40;99.90;;;;;;5091211;28;20059;-57
2023/06/26 12:07:08;;;;;;;4.88;2.00;;;25.40;99.90;;;;;;5091507;28;20598;-57
2023/06/26 12:09:38;;;;;;;6.07;2.20;;;25.40;99.90;;;;;;5090842;28;20495;-58
2023/06/26 12:12:04;;;;;;;7.13;2.10;;;25.60;99.90;;;;;;5091122;28;20495;-56
2023/06/26 12:14:31;;;;;;;5.25;2.65;;;25.60;99.90;;;;;;5091626;28;20020;-58
2023/06/26 12:17:05;;;;;;;5.07;2.40;;;25.50;99.90;;;;;;5090943;28;20107;-57
2023/06/26 12:19:31;;;;;;;6.03;2.40;;;25.60;99.90;;;;;;5094786;28;20051;-58
2023/06/26 12:21:58;;;;;;;6.70;2.30;;;25.70;99.90;;;;;;5097640;28;20615;-57
2023/06/26 12:24:24;;;;;;;5.28;2.55;;;25.60;99.90;;;;;;5097944;28;20551;-57
2023/06/26 12:26:56;;;;;;;4.20;2.33;;;25.70;99.90;;;;;;5097840;28;20608;-57
2023/06/26 12:29:33;;;;;;;5.53;2.20;;;25.80;99.90;;;;;;5097747;28;20053;-58
2023/06/26 12:31:59;;;;;;;4.53;2.30;;;25.50;99.90;;;;;;5097851;28;20044;-58
2023/06/26 12:34:33;;;;;;;6.80;2.88;;;25.30;99.90;;;;;;5098112;28;20035;-57
2023/06/26 12:37:08;;;;;;;5.18;2.80;;;25.40;99.90;;;;;;5097378;28;20501;-57
2023/06/26 12:39:53;;;;;;;5.32;2.50;;;25.40;99.90;;;;;;5097704;28;20102;-57
2023/06/26 12:42:26;;;;;;;5.32;2.45;;;25.30;99.90;;;;;;5097767;28;20502;-58